Terminal Aerodrome Forecast
Issued by NWS Cleveland, OH

Home | Current Version | Previous Version | Text Only | Print | Product List | Glossary On
Versions: 1 2 3 4 5 6 7 8 9 10 11 12 13 14 15 16 17 18 19 20 21 22 23 24 25 26 27 28
000
FTUS41 KCLE 021415 AAA
TAFCLE
TAF AMD
KCLE 021415Z 0214/0318 24010KT P6SM FEW060
     FM021700 23015G22KT P6SM FEW060 SCT200
     FM030400 21014G22KT P6SM VCTS BKN040CB OVC080
     FM030800 21012KT P6SM VCSH BKN040
     FM031100 21010KT P6SM BKN100=

USA.gov is the U.S. government's official web portal to all federal, state and local government web resources and services.